Time;durP1;ratioP1;P1;durP2;ratioP2;P2;SDS_P1;SDS_P2;PMS_P1;PMS_P2;Temp;Humidity;BMP_temperature;BMP_pressure;BME280_temperature;BME280_humidity;BME280_pressure;Samples;Min_cycle;Max_cycle;Signal;HPM_P1;HPM_P2
2021/08/23 00:02:11;;;;;;;4.28;1.38;;;16.30;80.10;;;;;;5094052;28;20028;-85
2021/08/23 00:04:37;;;;;;;5.55;1.80;;;16.30;81.30;;;;;;5092614;28;20383;-86
2021/08/23 00:07:04;;;;;;;5.57;1.63;;;16.30;80.80;;;;;;5093449;28;20032;-85
2021/08/23 00:09:30;;;;;;;4.85;1.83;;;16.20;79.20;;;;;;5111771;28;20034;-86
2021/08/23 00:11:56;;;;;;;6.85;1.77;;;16.10;79.80;;;;;;5111765;28;20071;-85
2021/08/23 00:14:22;;;;;;;3.25;1.75;;;16.10;80.60;;;;;;5093945;28;20476;-85
2021/08/23 00:16:47;;;;;;;4.25;1.80;;;16.00;80.90;;;;;;5111871;28;20059;-84
2021/08/23 00:19:13;;;;;;;3.03;1.65;;;16.00;81.20;;;;;;5093484;28;20559;-84
2021/08/23 00:21:44;;;;;;;4.05;1.52;;;16.00;80.60;;;;;;5093170;28;20028;-85
2021/08/23 00:24:24;;;;;;;5.32;1.63;;;16.00;81.70;;;;;;5111777;28;20016;-84
2021/08/23 00:26:53;;;;;;;4.50;1.50;;;16.00;80.70;;;;;;5077372;28;20034;-86
2021/08/23 00:29:19;;;;;;;4.45;1.75;;;15.90;81.30;;;;;;5112257;28;20031;-86
2021/08/23 00:31:44;;;;;;;6.70;1.70;;;15.90;81.50;;;;;;5111733;28;20024;-85
2021/08/23 00:34:11;;;;;;;4.13;1.70;;;15.80;81.90;;;;;;5111610;28;20098;-86
2021/08/23 00:36:36;;;;;;;3.63;1.42;;;15.90;81.80;;;;;;5111676;28;20054;-86
2021/08/23 00:39:04;;;;;;;3.38;1.65;;;16.00;82.10;;;;;;5094059;28;20484;-86
2021/08/23 00:41:31;;;;;;;5.55;1.73;;;16.00;82.30;;;;;;5097394;28;20052;-86
2021/08/23 00:43:58;;;;;;;6.75;1.80;;;16.00;81.30;;;;;;5097541;28;20023;-87
2021/08/23 00:46:24;;;;;;;4.93;1.90;;;16.00;81.50;;;;;;5115559;28;20059;-87
2021/08/23 00:48:50;;;;;;;6.18;1.98;;;15.90;82.00;;;;;;5115708;28;20110;-86
2021/08/23 00:51:16;;;;;;;4.93;1.70;;;15.80;82.40;;;;;;5096796;28;20023;-86
2021/08/23 00:53:43;;;;;;;4.95;1.60;;;15.80;81.80;;;;;;5115291;28;20028;-87
2021/08/23 00:56:10;;;;;;;5.53;1.88;;;15.70;80.90;;;;;;5116016;28;20040;-87
2021/08/23 00:58:35;;;;;;;4.30;1.67;;;15.70;82.40;;;;;;5096879;28;20038;-85
2021/08/23 01:01:08;;;;;;;6.07;2.13;;;15.70;83.70;;;;;;5115438;28;20102;-86
2021/08/23 01:03:45;;;;;;;4.60;2.05;;;15.60;82.80;;;;;;5115130;28;20107;-85
2021/08/23 01:06:11;;;;;;;5.00;1.85;;;15.70;82.10;;;;;;5114948;28;20043;-85
2021/08/23 01:08:39;;;;;;;3.90;1.70;;;15.60;83.10;;;;;;5097035;28;20020;-86
2021/08/23 01:11:09;;;;;;;6.68;2.10;;;15.70;82.80;;;;;;5097093;28;20030;-87
2021/08/23 01:13:43;;;;;;;4.38;1.65;;;15.70;82.50;;;;;;5095629;28;20024;-83
2021/08/23 01:16:08;;;;;;;4.72;1.67;;;15.70;82.80;;;;;;5096150;28;20510;-84
2021/08/23 01:18:34;;;;;;;6.38;2.03;;;15.80;82.50;;;;;;5114511;28;20055;-84
2021/08/23 01:21:02;;;;;;;3.80;1.67;;;15.70;82.70;;;;;;5114914;28;20080;-84
2021/08/23 01:23:32;;;;;;;3.15;1.70;;;15.70;82.80;;;;;;5114918;28;20024;-84
2021/08/23 01:25:57;;;;;;;3.75;1.60;;;15.70;82.60;;;;;;5096867;28;20062;-84
2021/08/23 01:28:51;;;;;;;5.45;2.00;;;15.80;82.80;;;;;;5114381;28;20487;-84
2021/08/23 01:31:50;;;;;;;3.95;1.73;;;15.70;81.70;;;;;;5114871;28;20020;-85
2021/08/23 01:34:17;;;;;;;3.10;1.30;;;15.60;81.20;;;;;;5114654;28;20541;-84
2021/08/23 01:36:42;;;;;;;3.72;1.70;;;15.70;82.40;;;;;;5096143;28;20435;-84
2021/08/23 01:39:08;;;;;;;4.63;1.60;;;15.60;81.30;;;;;;5114508;28;20019;-85
2021/08/23 01:41:34;;;;;;;3.38;1.50;;;15.60;81.10;;;;;;5096299;28;20028;-86
2021/08/23 01:43:59;;;;;;;2.80;1.27;;;15.50;80.90;;;;;;5114864;28;20031;-85
2021/08/23 01:46:31;;;;;;;2.33;1.40;;;15.40;81.00;;;;;;5095818;28;20040;-86
2021/08/23 01:49:02;;;;;;;3.65;1.60;;;15.40;81.20;;;;;;5114505;28;20026;-85
2021/08/23 01:51:28;;;;;;;4.00;1.65;;;15.30;81.60;;;;;;5113271;28;20024;-86
2021/08/23 01:53:54;;;;;;;3.72;1.48;;;15.30;81.50;;;;;;5095494;28;20258;-85
2021/08/23 01:56:20;;;;;;;3.60;1.67;;;15.30;82.00;;;;;;5096198;28;20032;-85
2021/08/23 01:58:46;;;;;;;3.33;1.20;;;15.40;81.90;;;;;;5113906;28;20023;-86
2021/08/23 02:01:11;;;;;;;2.55;1.30;;;15.40;81.50;;;;;;5095203;28;20093;-85
2021/08/23 02:03:37;;;;;;;3.28;1.23;;;15.30;81.80;;;;;;5114036;28;20016;-85
2021/08/23 02:06:03;;;;;;;2.47;1.20;;;15.30;81.60;;;;;;5113913;28;20028;-85
2021/08/23 02:08:28;;;;;;;3.80;1.50;;;15.20;81.40;;;;;;5095766;28;20186;-84
2021/08/23 02:10:54;;;;;;;3.38;1.38;;;15.10;81.20;;;;;;5114028;28;20031;-84
2021/08/23 02:13:19;;;;;;;4.15;1.63;;;15.10;82.50;;;;;;5113755;28;20093;-84
2021/08/23 02:15:45;;;;;;;2.88;1.40;;;15.30;82.80;;;;;;5095569;28;20496;-84
2021/08/23 02:18:10;;;;;;;3.65;1.60;;;15.20;81.90;;;;;;5089839;28;20024;-85
2021/08/23 02:20:36;;;;;;;2.45;1.38;;;15.20;82.40;;;;;;5112527;28;20424;-84
2021/08/23 02:23:02;;;;;;;4.40;1.48;;;15.10;81.90;;;;;;5095963;28;20032;-84
2021/08/23 02:25:27;;;;;;;3.28;1.58;;;15.10;81.90;;;;;;5113218;28;20031;-84
2021/08/23 02:27:54;;;;;;;5.60;1.77;;;15.10;82.30;;;;;;5094921;28;20028;-85
2021/08/23 02:30:21;;;;;;;3.42;1.40;;;15.10;82.40;;;;;;5094375;28;20088;-83
2021/08/23 02:32:47;;;;;;;2.65;1.33;;;15.10;82.20;;;;;;5112974;27;20020;-83
2021/08/23 02:35:13;;;;;;;2.35;1.40;;;15.10;81.80;;;;;;5113795;28;20027;-83
2021/08/23 02:37:39;;;;;;;2.60;1.50;;;15.10;82.20;;;;;;5113409;28;20036;-83
2021/08/23 02:40:05;;;;;;;2.92;1.17;;;15.00;82.20;;;;;;5112546;28;20080;-84
2021/08/23 02:42:31;;;;;;;2.60;1.30;;;15.00;82.00;;;;;;5113189;28;20026;-86
2021/08/23 02:44:57;;;;;;;4.22;1.20;;;15.00;82.30;;;;;;5094569;28;20020;-83
2021/08/23 02:47:22;;;;;;;3.33;1.40;;;15.00;82.40;;;;;;5113275;28;20038;-86
2021/08/23 02:49:48;;;;;;;3.20;1.20;;;15.00;82.20;;;;;;5095161;28;20388;-85
2021/08/23 02:52:14;;;;;;;3.58;1.80;;;14.90;83.30;;;;;;5113108;28;20028;-85
2021/08/23 02:54:39;;;;;;;5.38;1.65;;;15.00;82.70;;;;;;5112528;28;20027;-85
2021/08/23 02:57:05;;;;;;;2.10;1.30;;;15.00;83.30;;;;;;5094417;28;20020;-85
2021/08/23 02:59:31;;;;;;;2.83;1.40;;;15.00;83.00;;;;;;5112938;28;20128;-84
2021/08/23 03:01:57;;;;;;;2.38;1.10;;;15.00;83.10;;;;;;5094743;28;20496;-84
2021/08/23 03:04:22;;;;;;;3.75;1.45;;;15.00;83.30;;;;;;5094289;28;20053;-86
2021/08/23 03:06:48;;;;;;;4.50;1.52;;;15.20;84.40;;;;;;5093875;28;20063;-85
2021/08/23 03:09:14;;;;;;;4.13;1.83;;;15.20;84.40;;;;;;5093624;28;20100;-83
2021/08/23 03:11:39;;;;;;;3.10;1.77;;;15.30;84.30;;;;;;5113017;28;20031;-83
2021/08/23 03:14:05;;;;;;;3.17;1.80;;;15.30;84.00;;;;;;5094904;28;20436;-83
2021/08/23 03:16:31;;;;;;;3.60;1.70;;;15.40;84.50;;;;;;5093573;28;20027;-84
2021/08/23 03:18:57;;;;;;;7.30;2.17;;;15.40;84.10;;;;;;5093755;28;20446;-83
2021/08/23 03:21:23;;;;;;;3.83;1.80;;;15.40;83.50;;;;;;5094239;28;20028;-84
2021/08/23 03:23:49;;;;;;;6.05;1.90;;;15.40;84.10;;;;;;5093531;28;20114;-85
2021/08/23 03:26:14;;;;;;;4.05;1.90;;;15.50;84.90;;;;;;5113142;28;20043;-84
2021/08/23 03:28:40;;;;;;;5.63;1.80;;;15.40;84.30;;;;;;5112501;28;20028;-83
2021/08/23 03:31:06;;;;;;;5.00;2.25;;;15.40;84.10;;;;;;5112494;28;20031;-86
2021/08/23 03:33:33;;;;;;;3.17;2.00;;;15.50;84.10;;;;;;5112385;28;20023;-84
2021/08/23 03:35:59;;;;;;;6.75;2.63;;;15.50;85.00;;;;;;5112259;28;20092;-85
2021/08/23 03:38:25;;;;;;;3.40;2.08;;;15.50;84.70;;;;;;5112277;28;20024;-85
2021/08/23 03:40:50;;;;;;;7.25;2.60;;;15.60;84.10;;;;;;5112745;28;20024;-85
2021/08/23 03:43:16;;;;;;;6.32;3.08;;;15.60;84.40;;;;;;5093611;28;20035;-84
2021/08/23 03:45:41;;;;;;;6.32;2.40;;;15.60;84.20;;;;;;5111995;28;20035;-85
2021/08/23 03:48:07;;;;;;;4.65;2.50;;;15.50;83.50;;;;;;5112028;28;20785;-83
2021/08/23 03:50:33;;;;;;;5.15;3.03;;;15.60;84.00;;;;;;5093760;28;20031;-84
2021/08/23 03:52:58;;;;;;;5.90;2.80;;;15.60;84.40;;;;;;5112565;28;20031;-85
2021/08/23 03:55:24;;;;;;;6.82;2.75;;;15.60;84.40;;;;;;5093611;28;20027;-86
2021/08/23 03:57:50;;;;;;;7.05;2.63;;;15.70;84.30;;;;;;5092059;28;20047;-84
2021/08/23 04:00:16;;;;;;;6.25;2.63;;;15.60;83.90;;;;;;5111945;28;20104;-84
2021/08/23 04:02:41;;;;;;;4.97;2.55;;;15.60;84.10;;;;;;5093078;28;20499;-84
2021/08/23 04:05:07;;;;;;;6.45;2.55;;;15.60;84.80;;;;;;5112095;28;20480;-84
2021/08/23 04:07:33;;;;;;;6.20;2.55;;;15.60;84.10;;;;;;5111218;28;20042;-83
2021/08/23 04:09:59;;;;;;;7.47;2.60;;;15.60;84.20;;;;;;5092429;28;20036;-84
2021/08/23 04:12:24;;;;;;;7.10;2.78;;;15.60;84.10;;;;;;5093190;28;20103;-84
2021/08/23 04:14:50;;;;;;;4.32;2.33;;;15.60;84.70;;;;;;5095513;28;20046;-85
2021/08/23 04:17:16;;;;;;;6.30;2.22;;;15.60;84.10;;;;;;5098946;28;20058;-85
2021/08/23 04:19:41;;;;;;;5.45;2.42;;;15.60;84.40;;;;;;5115832;28;20039;-85
2021/08/23 04:22:07;;;;;;;5.65;2.53;;;15.60;83.90;;;;;;5115560;28;20028;-85
2021/08/23 04:24:32;;;;;;;5.00;2.60;;;15.50;84.80;;;;;;5115125;28;20076;-85
2021/08/23 04:26:58;;;;;;;5.05;2.28;;;15.50;84.60;;;;;;5115279;28;20035;-85
2021/08/23 04:29:24;;;;;;;4.15;2.55;;;15.40;84.60;;;;;;5115321;28;20175;-84
2021/08/23 04:31:49;;;;;;;4.13;2.40;;;15.40;85.00;;;;;;5114416;28;20106;-86
2021/08/23 04:34:15;;;;;;;5.22;2.63;;;15.40;84.90;;;;;;5096493;28;20031;-84
2021/08/23 04:36:40;;;;;;;4.30;2.25;;;15.40;85.20;;;;;;5115067;28;20027;-84
2021/08/23 04:39:06;;;;;;;3.90;2.40;;;15.50;84.90;;;;;;5115972;28;20045;-83
2021/08/23 04:41:40;;;;;;;5.53;2.80;;;15.50;84.90;;;;;;5117341;28;20059;-85
2021/08/23 04:44:06;;;;;;;;;;;15.50;84.10;;;;;;5100795;28;20051;-86
2021/08/23 04:46:32;;;;;;;3.80;2.30;;;15.50;83.60;;;;;;5117216;28;19915;-84
2021/08/23 04:48:58;;;;;;;3.80;2.10;;;15.40;84.10;;;;;;5098304;28;20031;-84
2021/08/23 04:51:23;;;;;;;6.30;2.50;;;15.40;84.20;;;;;;5114501;28;20043;-84
2021/08/23 04:53:49;;;;;;;4.97;1.88;;;15.30;84.10;;;;;;5096062;28;20035;-85
2021/08/23 04:56:18;;;;;;;3.17;1.60;;;15.40;84.10;;;;;;5115558;28;20023;-85
2021/08/23 04:58:44;;;;;;;4.32;1.80;;;15.30;85.00;;;;;;5114570;28;20504;-84
2021/08/23 05:01:10;;;;;;;2.60;1.70;;;15.30;84.20;;;;;;5095954;28;20031;-86
2021/08/23 05:03:36;;;;;;;3.00;1.58;;;15.30;84.80;;;;;;5116195;28;20024;-83
2021/08/23 05:06:02;;;;;;;3.95;1.73;;;15.40;84.80;;;;;;5115726;28;20032;-84
2021/08/23 05:08:28;;;;;;;3.15;1.90;;;15.40;84.80;;;;;;5115655;28;20020;-85
2021/08/23 05:10:53;;;;;;;2.40;1.50;;;15.30;83.90;;;;;;5115841;28;20024;-85
2021/08/23 05:13:19;;;;;;;2.83;1.73;;;15.30;84.00;;;;;;5096652;28;20023;-84
2021/08/23 05:15:45;;;;;;;3.88;1.63;;;15.30;84.20;;;;;;5096608;28;20020;-84
2021/08/23 05:18:10;;;;;;;2.88;1.90;;;15.20;84.10;;;;;;5115433;28;20506;-84
2021/08/23 05:20:36;;;;;;;2.38;1.50;;;15.20;84.00;;;;;;5114460;28;20062;-84
2021/08/23 05:23:02;;;;;;;2.53;1.60;;;15.20;84.40;;;;;;5097110;28;20031;-85
2021/08/23 05:25:28;;;;;;;2.75;1.67;;;15.20;84.50;;;;;;5115147;28;20389;-84
2021/08/23 05:27:54;;;;;;;3.35;1.70;;;15.20;84.00;;;;;;5096636;28;20035;-84
2021/08/23 05:30:19;;;;;;;4.00;1.70;;;15.10;83.90;;;;;;5096890;28;20027;-82
2021/08/23 05:32:45;;;;;;;2.00;1.40;;;15.10;84.30;;;;;;5097297;28;20567;-84
2021/08/23 05:35:11;;;;;;;2.00;1.30;;;15.10;84.90;;;;;;5127765;27;20028;-86
2021/08/23 05:37:37;;;;;;;1.58;1.38;;;15.00;84.90;;;;;;5096155;28;20063;-84
2021/08/23 05:40:04;;;;;;;2.03;1.50;;;15.00;84.70;;;;;;5096612;28;20027;-84
2021/08/23 05:42:29;;;;;;;2.10;1.63;;;15.00;85.10;;;;;;5114818;28;20020;-84
2021/08/23 05:44:55;;;;;;;2.35;1.83;;;15.10;85.00;;;;;;5116176;27;20037;-84
2021/08/23 05:47:22;;;;;;;1.85;1.48;;;15.00;84.90;;;;;;5096388;28;20062;-85
2021/08/23 05:49:48;;;;;;;3.33;1.90;;;15.00;84.80;;;;;;5097274;28;20389;-83
2021/08/23 05:52:14;;;;;;;2.35;1.50;;;15.10;85.10;;;;;;5114412;28;20114;-82
2021/08/23 05:54:40;;;;;;;2.30;1.50;;;15.10;85.30;;;;;;5115003;28;20110;-87
2021/08/23 05:57:06;;;;;;;3.95;1.92;;;15.10;85.50;;;;;;5096378;28;20609;-85
2021/08/23 05:59:32;;;;;;;3.03;1.80;;;15.10;85.10;;;;;;5116555;27;20035;-84
2021/08/23 06:01:58;;;;;;;3.13;1.95;;;15.20;86.00;;;;;;5117077;27;20019;-84
2021/08/23 06:04:24;;;;;;;5.20;1.60;;;15.20;85.50;;;;;;5118626;27;20391;-83
2021/08/23 06:06:50;;;;;;;2.30;1.88;;;15.30;85.80;;;;;;5096667;28;20115;-83
2021/08/23 06:09:17;;;;;;;4.25;1.83;;;15.40;86.00;;;;;;5114660;28;20480;-82
2021/08/23 06:11:43;;;;;;;3.30;2.22;;;15.40;85.90;;;;;;5108394;28;20023;-84
2021/08/23 06:14:08;;;;;;;3.20;2.13;;;15.50;85.70;;;;;;5096408;28;20106;-85
2021/08/23 06:16:34;;;;;;;3.33;2.53;;;15.60;85.90;;;;;;5114423;27;20514;-84
2021/08/23 06:19:00;;;;;;;2.38;2.03;;;15.60;85.20;;;;;;5112876;28;20046;-83
2021/08/23 06:21:26;;;;;;;3.78;2.38;;;15.70;86.10;;;;;;5101902;28;20110;-83
2021/08/23 06:23:52;;;;;;;2.80;2.25;;;15.70;85.40;;;;;;5095800;28;20020;-84
2021/08/23 06:26:17;;;;;;;2.83;2.20;;;15.70;85.60;;;;;;5095769;28;20568;-83
2021/08/23 06:28:43;;;;;;;4.45;2.58;;;15.70;85.60;;;;;;5093485;28;20126;-83
2021/08/23 06:31:09;;;;;;;2.75;2.13;;;15.70;85.60;;;;;;5113401;28;20070;-83
2021/08/23 06:33:35;;;;;;;4.35;2.58;;;15.80;86.10;;;;;;5113038;28;20020;-85
2021/08/23 06:36:00;;;;;;;3.55;2.65;;;15.80;85.50;;;;;;5113203;28;20483;-83
2021/08/23 06:38:26;;;;;;;3.63;2.30;;;15.80;85.40;;;;;;5113637;28;20024;-83
2021/08/23 06:40:52;;;;;;;5.18;2.58;;;15.90;85.90;;;;;;5118283;27;20035;-83
2021/08/23 06:43:17;;;;;;;2.83;2.47;;;16.00;85.80;;;;;;5113411;28;20080;-83
2021/08/23 06:45:43;;;;;;;5.75;3.33;;;16.10;85.90;;;;;;5094995;28;20043;-83
2021/08/23 06:48:09;;;;;;;5.05;3.50;;;16.10;85.80;;;;;;5113646;28;20106;-84
2021/08/23 06:50:34;;;;;;;6.30;3.00;;;16.30;86.10;;;;;;5095136;28;20496;-84
2021/08/23 06:53:02;;;;;;;3.85;2.70;;;16.30;85.80;;;;;;5114767;27;20453;-84
2021/08/23 06:55:28;;;;;;;5.82;2.78;;;16.40;85.40;;;;;;5114430;27;20024;-85
2021/08/23 06:57:53;;;;;;;6.80;2.90;;;16.50;85.20;;;;;;5112374;27;20035;-85
2021/08/23 07:00:19;;;;;;;6.18;3.53;;;16.40;84.90;;;;;;5094578;28;20028;-84
2021/08/23 07:02:45;;;;;;;7.95;3.25;;;16.50;85.00;;;;;;5094769;28;20392;-83
2021/08/23 07:05:11;;;;;;;4.85;3.03;;;16.40;85.20;;;;;;5094263;28;20028;-83
2021/08/23 07:07:37;;;;;;;5.85;4.25;;;16.40;85.20;;;;;;5113132;28;20028;-85
2021/08/23 07:10:03;;;;;;;5.47;3.20;;;16.30;85.30;;;;;;5094447;27;20045;-84
2021/08/23 07:12:29;;;;;;;4.55;3.10;;;16.30;86.30;;;;;;5116703;27;20080;-86
2021/08/23 07:14:55;;;;;;;7.07;3.30;;;16.40;85.70;;;;;;5094412;27;20037;-83
2021/08/23 07:17:21;;;;;;;4.97;3.20;;;16.30;86.70;;;;;;5118318;27;20056;-84
2021/08/23 07:19:46;;;;;;;4.13;3.10;;;16.30;86.10;;;;;;5116783;27;20035;-88
2021/08/23 07:22:18;;;;;;;3.53;2.30;;;16.30;86.60;;;;;;5095396;28;20042;-82
2021/08/23 07:24:43;;;;;;;4.93;3.17;;;16.30;86.90;;;;;;5110318;28;20462;-83
2021/08/23 07:27:09;;;;;;;4.22;3.15;;;16.30;86.30;;;;;;5112516;28;20070;-83
2021/08/23 07:29:35;;;;;;;4.82;2.72;;;16.20;85.90;;;;;;5113155;28;20054;-81
2021/08/23 07:32:01;;;;;;;4.32;3.03;;;16.20;86.90;;;;;;5112163;28;20727;-77
2021/08/23 07:34:26;;;;;;;3.58;2.30;;;16.30;87.10;;;;;;5110954;28;20020;-80
2021/08/23 07:36:52;;;;;;;3.70;2.00;;;16.40;88.10;;;;;;5095111;28;20038;-79
2021/08/23 07:39:18;;;;;;;2.78;2.30;;;16.50;88.30;;;;;;5093416;28;20400;-77
2021/08/23 07:41:44;;;;;;;3.55;2.90;;;16.70;87.50;;;;;;5111329;28;20464;-79
2021/08/23 07:44:09;;;;;;;3.20;2.83;;;16.70;86.80;;;;;;5111517;28;20023;-77
2021/08/23 07:46:35;;;;;;;3.75;2.33;;;16.80;86.60;;;;;;5110721;28;20051;-78
2021/08/23 07:49:02;;;;;;;3.30;2.60;;;16.70;86.80;;;;;;5107201;28;20020;-79
2021/08/23 07:51:27;;;;;;;4.75;3.08;;;16.70;86.40;;;;;;5110776;28;20031;-79
2021/08/23 07:53:53;;;;;;;4.63;2.80;;;16.70;86.50;;;;;;5092902;28;20031;-78
2021/08/23 07:56:19;;;;;;;3.17;2.58;;;16.60;86.60;;;;;;5111568;28;20027;-79
2021/08/23 07:58:44;;;;;;;3.97;2.38;;;16.60;86.80;;;;;;5093500;28;20483;-78
2021/08/23 08:01:10;;;;;;;4.03;2.58;;;16.60;87.60;;;;;;5110764;28;20039;-80
2021/08/23 08:03:37;;;;;;;3.17;2.30;;;16.70;88.00;;;;;;5111428;28;20031;-78
2021/08/23 08:06:03;;;;;;;4.53;2.88;;;16.60;87.20;;;;;;5111022;28;20415;-78
2021/08/23 08:08:29;;;;;;;3.08;2.42;;;16.70;87.70;;;;;;5094059;28;20016;-78
2021/08/23 08:10:57;;;;;;;3.25;2.75;;;16.80;87.60;;;;;;5112021;28;20027;-78
2021/08/23 08:13:24;;;;;;;4.85;2.83;;;16.80;87.50;;;;;;5091362;28;20030;-81
2021/08/23 08:15:50;;;;;;;2.90;2.35;;;16.90;87.60;;;;;;5118369;28;20038;-80
2021/08/23 08:18:15;;;;;;;4.15;2.83;;;17.10;87.40;;;;;;5118719;28;20030;-79
2021/08/23 08:20:41;;;;;;;4.57;2.50;;;17.20;87.30;;;;;;5108978;28;20055;-79
2021/08/23 08:23:07;;;;;;;4.55;3.10;;;17.30;87.30;;;;;;5094092;28;20028;-78
2021/08/23 08:25:32;;;;;;;3.20;2.72;;;17.20;87.00;;;;;;5111802;28;20070;-81
2021/08/23 08:27:58;;;;;;;3.58;2.67;;;17.40;87.40;;;;;;5111316;28;20104;-80
2021/08/23 08:30:24;;;;;;;3.83;2.92;;;17.60;87.10;;;;;;5110928;28;20073;-79
2021/08/23 08:32:50;;;;;;;4.00;3.22;;;17.70;86.80;;;;;;5111272;28;20028;-79
2021/08/23 08:35:15;;;;;;;4.47;2.78;;;17.70;85.80;;;;;;5093637;28;20026;-78
2021/08/23 08:37:41;;;;;;;4.38;2.90;;;17.60;86.20;;;;;;5110957;28;20023;-80
2021/08/23 08:40:09;;;;;;;3.63;3.05;;;17.60;86.10;;;;;;5111206;27;20098;-80
2021/08/23 08:42:35;;;;;;;4.05;2.83;;;17.50;86.70;;;;;;5112734;28;20403;-79
2021/08/23 08:45:02;;;;;;;3.95;3.00;;;17.50;87.20;;;;;;5113446;27;20019;-79
2021/08/23 08:47:29;;;;;;;5.07;3.63;;;17.60;87.50;;;;;;5111291;28;20028;-80
2021/08/23 08:49:59;;;;;;;4.10;2.92;;;17.60;87.20;;;;;;5110928;28;20107;-79
2021/08/23 08:52:24;;;;;;;4.90;2.50;;;17.60;87.20;;;;;;5107647;28;20055;-79
2021/08/23 08:54:50;;;;;;;5.25;2.75;;;17.60;87.20;;;;;;5111305;28;20062;-79
2021/08/23 08:57:16;;;;;;;3.45;2.22;;;17.70;86.70;;;;;;5093759;28;20099;-80
2021/08/23 08:59:41;;;;;;;3.75;2.60;;;17.70;88.40;;;;;;5093783;28;20027;-79
2021/08/23 09:02:08;;;;;;;3.30;2.35;;;17.70;87.30;;;;;;5115009;28;20024;-79
2021/08/23 09:04:36;;;;;;;2.63;1.73;;;17.90;87.80;;;;;;5096158;28;20027;-80
2021/08/23 09:07:04;;;;;;;4.75;2.30;;;18.10;88.90;;;;;;5093605;28;20038;-80
2021/08/23 09:09:30;;;;;;;3.13;2.00;;;18.10;86.40;;;;;;5096388;28;20444;-80
2021/08/23 09:12:11;;;;;;;2.95;1.83;;;18.20;86.50;;;;;;5095750;28;20028;-80
2021/08/23 09:14:55;;;;;;;3.38;1.98;;;18.40;86.60;;;;;;5095072;28;20027;-81
2021/08/23 09:17:25;;;;;;;3.88;2.40;;;18.50;85.80;;;;;;5096019;28;20061;-79
2021/08/23 09:19:59;;;;;;;2.00;1.52;;;18.50;84.10;;;;;;5113000;28;20091;-80
2021/08/23 09:22:26;;;;;;;2.55;2.00;;;18.50;84.60;;;;;;5111807;28;20442;-80
2021/08/23 09:24:52;;;;;;;2.63;1.90;;;18.50;82.90;;;;;;5111203;28;20400;-80
2021/08/23 09:27:18;;;;;;;3.13;1.77;;;18.50;82.40;;;;;;5113645;27;20036;-79
2021/08/23 09:30:00;;;;;;;3.10;2.00;;;18.60;82.90;;;;;;5100412;28;20503;-79
2021/08/23 09:32:27;;;;;;;3.97;2.07;;;18.60;82.70;;;;;;5097646;28;20028;-80
2021/08/23 09:34:53;;;;;;;4.93;1.98;;;18.60;82.90;;;;;;5114439;28;20023;-81
2021/08/23 09:37:30;;;;;;;4.63;2.53;;;18.60;83.50;;;;;;5113913;27;20030;-80
2021/08/23 09:40:06;;;;;;;3.25;2.13;;;18.50;83.50;;;;;;5113921;28;20024;-81
2021/08/23 09:42:32;;;;;;;4.28;2.10;;;18.60;83.80;;;;;;5128300;27;20020;-79
2021/08/23 09:44:58;;;;;;;2.83;2.00;;;18.70;84.10;;;;;;5098798;28;20031;-79
2021/08/23 09:47:28;;;;;;;4.57;2.50;;;18.80;83.50;;;;;;5113804;28;20024;-80
2021/08/23 09:49:55;;;;;;;2.95;2.10;;;18.90;83.50;;;;;;5113471;28;20042;-81
2021/08/23 09:52:33;;;;;;;3.95;2.30;;;19.00;83.40;;;;;;5113803;28;20031;-80
2021/08/23 09:55:08;;;;;;;4.95;2.30;;;19.10;83.50;;;;;;5113692;28;20081;-80
2021/08/23 09:57:38;;;;;;;2.60;1.83;;;19.10;82.20;;;;;;5112895;28;20047;-79
2021/08/23 10:00:07;;;;;;;3.72;1.75;;;19.10;82.20;;;;;;5114007;28;20081;-79
2021/08/23 10:02:34;;;;;;;4.53;2.00;;;19.20;82.40;;;;;;5113734;28;20499;-80
2021/08/23 10:05:01;;;;;;;3.92;1.88;;;19.30;82.20;;;;;;5112085;28;20069;-79
2021/08/23 10:07:29;;;;;;;3.40;1.90;;;19.30;81.50;;;;;;5113428;28;20034;-79
2021/08/23 10:10:00;;;;;;;2.95;1.90;;;19.30;82.00;;;;;;5112851;28;20046;-79
2021/08/23 10:12:25;;;;;;;4.30;2.30;;;19.50;81.90;;;;;;5092403;28;20026;-80
2021/08/23 10:14:51;;;;;;;5.50;1.95;;;19.50;80.40;;;;;;5113699;28;20024;-81
2021/08/23 10:17:17;;;;;;;3.35;1.90;;;19.40;80.80;;;;;;5114079;28;20011;-80
2021/08/23 10:19:44;;;;;;;3.95;1.95;;;19.40;81.50;;;;;;5095450;28;20052;-80
2021/08/23 10:22:13;;;;;;;4.05;2.00;;;19.50;82.10;;;;;;5091962;28;20024;-79
2021/08/23 10:24:40;;;;;;;4.53;2.20;;;19.60;81.40;;;;;;5112730;28;20027;-80
2021/08/23 10:27:06;;;;;;;3.28;1.98;;;19.70;82.10;;;;;;5112943;27;20051;-79
2021/08/23 10:29:39;;;;;;;3.80;2.22;;;20.00;81.70;;;;;;5110195;28;20067;-80
2021/08/23 10:32:10;;;;;;;3.67;2.47;;;20.10;80.20;;;;;;5109271;28;20036;-82
2021/08/23 10:34:38;;;;;;;3.45;2.33;;;19.90;79.30;;;;;;5097074;28;20046;-80
2021/08/23 10:37:15;;;;;;;4.22;2.03;;;19.90;80.40;;;;;;5112299;27;20066;-83
2021/08/23 10:39:41;;;;;;;2.20;1.90;;;20.10;81.00;;;;;;5110803;28;20069;-81
2021/08/23 10:42:11;;;;;;;2.95;2.08;;;20.20;80.30;;;;;;5113121;27;20024;-81
2021/08/23 10:44:37;;;;;;;4.07;2.00;;;20.20;79.70;;;;;;5111035;28;20020;-80
2021/08/23 10:47:08;;;;;;;4.20;2.42;;;20.20;79.20;;;;;;5111618;28;20038;-82
2021/08/23 10:49:45;;;;;;;3.70;2.35;;;20.40;79.40;;;;;;5109518;28;20031;-81
2021/08/23 10:52:13;;;;;;;3.85;2.35;;;20.50;78.20;;;;;;5098591;28;20085;-81
2021/08/23 10:54:41;;;;;;;4.25;2.15;;;20.60;78.30;;;;;;5103677;28;20020;-75
2021/08/23 10:57:09;;;;;;;4.03;2.40;;;20.60;78.10;;;;;;5113013;28;20039;-76
2021/08/23 10:59:49;;;;;;;3.55;1.95;;;20.60;77.80;;;;;;5111560;28;20547;-76
2021/08/23 11:02:27;;;;;;;3.20;2.25;;;20.60;77.40;;;;;;5108939;28;20019;-75
2021/08/23 11:05:06;;;;;;;4.50;2.95;;;20.80;77.80;;;;;;5107623;28;20068;-75
2021/08/23 11:07:33;;;;;;;3.40;2.20;;;20.90;76.00;;;;;;5108359;28;20118;-77
2021/08/23 11:10:12;;;;;;;3.95;2.00;;;20.90;75.90;;;;;;5112675;28;20510;-78
2021/08/23 11:12:52;;;;;;;4.03;2.08;;;20.90;76.50;;;;;;5110433;28;20023;-75
2021/08/23 11:15:23;;;;;;;2.83;2.30;;;21.10;76.80;;;;;;5110794;28;20015;-76
2021/08/23 11:18:13;;;;;;;2.60;1.90;;;21.00;75.20;;;;;;5111547;28;20551;-76
2021/08/23 11:20:46;;;;;;;3.63;2.10;;;20.90;76.40;;;;;;5108589;28;20060;-78
2021/08/23 11:23:17;;;;;;;3.45;2.35;;;20.90;76.50;;;;;;5093353;28;20038;-77
2021/08/23 11:25:46;;;;;;;4.88;2.05;;;21.00;75.50;;;;;;5109913;28;20036;-76
2021/08/23 11:28:17;;;;;;;3.28;2.10;;;21.00;75.60;;;;;;5089622;28;20060;-79
2021/08/23 11:30:48;;;;;;;3.72;2.22;;;20.90;74.80;;;;;;5092497;28;20031;-78
2021/08/23 11:33:25;;;;;;;3.58;2.13;;;20.90;74.70;;;;;;5109169;28;20099;-78
2021/08/23 11:35:50;;;;;;;3.97;2.42;;;21.00;75.30;;;;;;5104017;27;20519;-77
2021/08/23 11:38:16;;;;;;;4.97;2.38;;;21.00;74.10;;;;;;5112073;28;20047;-76
2021/08/23 11:40:45;;;;;;;2.95;1.90;;;21.00;75.30;;;;;;5092684;28;20076;-78
2021/08/23 11:43:10;;;;;;;6.60;2.88;;;21.10;73.90;;;;;;5111098;27;20691;-77
2021/08/23 11:45:39;;;;;;;4.45;2.40;;;21.10;74.20;;;;;;5108748;28;20059;-79
2021/08/23 11:48:06;;;;;;;4.35;2.85;;;21.10;72.40;;;;;;5092693;28;20031;-78
2021/08/23 11:50:32;;;;;;;6.85;2.47;;;21.10;72.80;;;;;;5090556;28;20040;-79
2021/08/23 11:53:03;;;;;;;11.13;2.83;;;21.20;72.40;;;;;;5112215;27;20055;-78
2021/08/23 11:55:35;;;;;;;4.05;2.30;;;21.20;71.80;;;;;;5108859;28;20128;-78
2021/08/23 11:58:06;;;;;;;3.30;1.90;;;21.30;72.70;;;;;;5106318;28;20061;-79
2021/08/23 12:00:33;;;;;;;3.90;2.45;;;21.40;72.70;;;;;;5100914;28;20044;-80
2021/08/23 12:03:18;;;;;;;5.28;2.67;;;21.40;71.90;;;;;;5107328;28;20027;-77
2021/08/23 12:05:46;;;;;;;9.95;2.70;;;21.20;72.00;;;;;;5108881;28;20032;-79
2021/08/23 12:08:27;;;;;;;3.22;2.10;;;21.30;72.70;;;;;;5109888;28;20024;-78
2021/08/23 12:10:57;;;;;;;2.75;2.30;;;21.30;73.20;;;;;;5091030;28;20407;-79
2021/08/23 12:13:45;;;;;;;3.47;2.65;;;21.30;71.20;;;;;;5109523;28;20039;-79
2021/08/23 12:16:20;;;;;;;4.47;2.83;;;21.20;71.30;;;;;;5090100;28;20031;-78
2021/08/23 12:18:52;;;;;;;4.07;2.67;;;21.40;72.70;;;;;;5107754;28;20046;-78
2021/08/23 12:21:20;;;;;;;6.60;2.50;;;21.60;70.40;;;;;;5106951;28;20035;-77
2021/08/23 12:23:52;;;;;;;2.97;2.30;;;21.70;70.40;;;;;;5093218;28;20041;-77
2021/08/23 12:26:56;;;;;;;4.30;2.88;;;21.90;70.90;;;;;;5111243;28;20040;-77
2021/08/23 12:29:28;;;;;;;14.85;2.83;;;21.90;71.20;;;;;;5099052;28;20066;-76
2021/08/23 12:32:07;;;;;;;8.38;2.80;;;22.00;71.10;;;;;;5112091;28;20496;-77
2021/08/23 12:34:37;;;;;;;22.08;4.20;;;22.10;70.80;;;;;;5091141;28;20040;-76
2021/08/23 12:37:03;;;;;;;4.93;2.85;;;22.20;69.10;;;;;;5112270;28;20092;-77
2021/08/23 12:39:30;;;;;;;4.35;2.67;;;22.20;69.40;;;;;;5112518;28;20019;-77
2021/08/23 12:42:01;;;;;;;7.13;2.92;;;22.30;69.80;;;;;;5113825;27;20530;-76
2021/08/23 12:44:27;;;;;;;14.45;3.03;;;22.40;70.00;;;;;;5112288;28;20383;-76
2021/08/23 12:46:53;;;;;;;7.82;3.13;;;22.40;69.20;;;;;;5113472;28;20038;-78
2021/08/23 12:49:19;;;;;;;11.63;2.90;;;22.40;68.60;;;;;;5111663;28;20028;-77
2021/08/23 12:51:46;;;;;;;8.75;3.05;;;22.40;68.60;;;;;;5112195;28;20077;-77